CheckWX is a tool to help pilots better visualize weather data.  It is not intended as a substitute for an official pre-flight weather briefing.

20:39:56 UTC

CYAM METAR
Sault Ste Marie Airport
Sault Ste Marie, , Canada
Current

40 mins ago

CYAM 182000Z 29012KT 25SM FEW016 FEW260 M14/M18 A3037 RMK CU1CI1 SLP303
Observed
Feb-18 @ 20:00 UTC
Wind
  • 290° at 12 KTS
Visibility
25 SM
Flight Rules
VFR
Cloud Levels
  • Few at 1,600' AGL
  • Few at 26,000' AGL
Temperature
-14°C / 7°F
Dewpoint
-18°C / -0°F
Humidity
72%
Altimeter
30.37" Hg
Pressure
1030.3 hPa
Previous

2 hours ago

CYAM 181900Z 29011KT 25SM FEW030 FEW260 M15/M20 A3036 RMK SC1CI1 SC TR SLP299
Observed
Feb-18 @ 19:00 UTC
Wind
  • 290° at 11 KTS
Visibility
25 SM
Flight Rules
VFR
Cloud Levels
  • Few at 3,000' AGL
  • Few at 26,000' AGL
Temperature
-15°C / 5°F
Dewpoint
-20°C / -4°F
Humidity
66%
Altimeter
30.36" Hg
Pressure
1029.9 hPa
Previous

3 hours ago

CYAM 181800Z 29013KT 25SM FEW030 FEW260 M15/M20 A3035 RMK SC1CI1 SC TR SLP296
Observed
Feb-18 @ 18:00 UTC
Wind
  • 290° at 13 KTS
Visibility
25 SM
Flight Rules
VFR
Cloud Levels
  • Few at 3,000' AGL
  • Few at 26,000' AGL
Temperature
-15°C / 5°F
Dewpoint
-20°C / -4°F
Humidity
66%
Altimeter
30.35" Hg
Pressure
1029.6 hPa